sensor_id;sensor_type;location;lat;lon;timestamp;P1;durP1;ratioP1;P2;durP2;ratioP2
55170;SDS011;41060;47.510;8.680;2024-02-21T00:01:49;1.02;;;0.80;;
55170;SDS011;41060;47.510;8.680;2024-02-21T00:04:18;2.45;;;1.15;;
55170;SDS011;41060;47.510;8.680;2024-02-21T00:06:45;2.17;;;1.33;;
55170;SDS011;41060;47.510;8.680;2024-02-21T00:09:12;3.67;;;1.17;;
55170;SDS011;41060;47.510;8.680;2024-02-21T00:11:39;2.03;;;1.17;;
55170;SDS011;41060;47.510;8.680;2024-02-21T00:14:05;1.52;;;1.20;;
55170;SDS011;41060;47.510;8.680;2024-02-21T00:16:34;3.80;;;1.60;;
55170;SDS011;41060;47.510;8.680;2024-02-21T00:19:01;3.83;;;1.85;;
55170;SDS011;41060;47.510;8.680;2024-02-21T00:21:28;3.88;;;1.77;;
55170;SDS011;41060;47.510;8.680;2024-02-21T00:23:55;4.05;;;1.45;;
55170;SDS011;41060;47.510;8.680;2024-02-21T00:26:21;4.93;;;2.10;;
55170;SDS011;41060;47.510;8.680;2024-02-21T00:28:50;3.13;;;1.52;;
55170;SDS011;41060;47.510;8.680;2024-02-21T00:31:17;2.17;;;1.17;;
55170;SDS011;41060;47.510;8.680;2024-02-21T00:33:50;7.10;;;2.05;;
55170;SDS011;41060;47.510;8.680;2024-02-21T00:36:17;6.40;;;1.42;;
55170;SDS011;41060;47.510;8.680;2024-02-21T00:38:44;1.17;;;0.90;;
55170;SDS011;41060;47.510;8.680;2024-02-21T00:41:11;7.68;;;1.80;;
55170;SDS011;41060;47.510;8.680;2024-02-21T00:43:38;3.97;;;1.27;;
55170;SDS011;41060;47.510;8.680;2024-02-21T00:46:05;5.50;;;1.40;;
55170;SDS011;41060;47.510;8.680;2024-02-21T00:48:34;5.03;;;1.40;;
55170;SDS011;41060;47.510;8.680;2024-02-21T00:51:10;2.85;;;1.23;;
55170;SDS011;41060;47.510;8.680;2024-02-21T00:53:37;1.60;;;1.00;;
55170;SDS011;41060;47.510;8.680;2024-02-21T00:56:04;3.55;;;1.02;;
55170;SDS011;41060;47.510;8.680;2024-02-21T00:58:32;6.15;;;1.63;;
55170;SDS011;41060;47.510;8.680;2024-02-21T01:00:59;3.90;;;1.77;;
55170;SDS011;41060;47.510;8.680;2024-02-21T01:03:26;2.67;;;1.35;;
55170;SDS011;41060;47.510;8.680;2024-02-21T01:05:53;1.90;;;1.17;;
55170;SDS011;41060;47.510;8.680;2024-02-21T01:08:21;3.55;;;1.20;;
55170;SDS011;41060;47.510;8.680;2024-02-21T01:10:48;1.75;;;1.00;;
55170;SDS011;41060;47.510;8.680;2024-02-21T01:13:15;5.10;;;1.35;;
55170;SDS011;41060;47.510;8.680;2024-02-21T01:15:42;6.93;;;2.03;;
55170;SDS011;41060;47.510;8.680;2024-02-21T01:18:09;2.28;;;1.42;;
55170;SDS011;41060;47.510;8.680;2024-02-21T01:20:36;2.63;;;1.23;;
55170;SDS011;41060;47.510;8.680;2024-02-21T01:23:02;2.50;;;1.20;;
55170;SDS011;41060;47.510;8.680;2024-02-21T01:25:32;3.72;;;1.35;;
55170;SDS011;41060;47.510;8.680;2024-02-21T01:27:59;1.77;;;1.00;;
55170;SDS011;41060;47.510;8.680;2024-02-21T01:30:25;1.40;;;1.02;;
55170;SDS011;41060;47.510;8.680;2024-02-21T01:32:52;2.85;;;1.10;;
55170;SDS011;41060;47.510;8.680;2024-02-21T01:35:19;2.10;;;1.00;;
55170;SDS011;41060;47.510;8.680;2024-02-21T01:37:48;2.83;;;1.35;;
55170;SDS011;41060;47.510;8.680;2024-02-21T01:40:16;5.03;;;1.42;;
55170;SDS011;41060;47.510;8.680;2024-02-21T01:42:45;4.55;;;1.17;;
55170;SDS011;41060;47.510;8.680;2024-02-21T01:45:13;3.10;;;1.40;;
55170;SDS011;41060;47.510;8.680;2024-02-21T01:47:39;2.05;;;1.00;;
55170;SDS011;41060;47.510;8.680;2024-02-21T01:50:07;1.80;;;1.23;;
55170;SDS011;41060;47.510;8.680;2024-02-21T01:52:34;3.25;;;1.42;;
55170;SDS011;41060;47.510;8.680;2024-02-21T01:55:01;1.63;;;1.15;;
55170;SDS011;41060;47.510;8.680;2024-02-21T01:57:29;3.00;;;1.10;;
55170;SDS011;41060;47.510;8.680;2024-02-21T01:59:57;1.85;;;1.00;;
55170;SDS011;41060;47.510;8.680;2024-02-21T02:02:24;2.28;;;1.45;;
55170;SDS011;41060;47.510;8.680;2024-02-21T02:04:51;3.03;;;1.20;;
55170;SDS011;41060;47.510;8.680;2024-02-21T02:07:19;2.33;;;0.88;;
55170;SDS011;41060;47.510;8.680;2024-02-21T02:09:45;2.10;;;1.25;;
55170;SDS011;41060;47.510;8.680;2024-02-21T02:12:12;3.47;;;1.27;;
55170;SDS011;41060;47.510;8.680;2024-02-21T02:14:39;1.88;;;1.58;;
55170;SDS011;41060;47.510;8.680;2024-02-21T02:17:07;1.80;;;1.00;;
55170;SDS011;41060;47.510;8.680;2024-02-21T02:19:35;2.28;;;1.15;;
55170;SDS011;41060;47.510;8.680;2024-02-21T02:22:03;1.60;;;1.00;;
55170;SDS011;41060;47.510;8.680;2024-02-21T02:24:38;5.28;;;1.33;;
55170;SDS011;41060;47.510;8.680;2024-02-21T02:27:05;2.25;;;1.17;;
55170;SDS011;41060;47.510;8.680;2024-02-21T02:29:32;2.47;;;1.15;;
55170;SDS011;41060;47.510;8.680;2024-02-21T02:31:59;1.63;;;1.00;;
55170;SDS011;41060;47.510;8.680;2024-02-21T02:34:25;3.03;;;1.20;;
55170;SDS011;41060;47.510;8.680;2024-02-21T02:36:52;3.92;;;1.20;;
55170;SDS011;41060;47.510;8.680;2024-02-21T02:39:20;1.42;;;0.80;;
55170;SDS011;41060;47.510;8.680;2024-02-21T02:41:48;2.55;;;1.30;;
55170;SDS011;41060;47.510;8.680;2024-02-21T02:44:15;1.60;;;0.98;;
55170;SDS011;41060;47.510;8.680;2024-02-21T02:46:42;1.67;;;1.08;;
55170;SDS011;41060;47.510;8.680;2024-02-21T02:49:09;3.05;;;0.93;;
55170;SDS011;41060;47.510;8.680;2024-02-21T02:51:36;4.80;;;1.38;;
55170;SDS011;41060;47.510;8.680;2024-02-21T02:54:03;2.65;;;1.25;;
55170;SDS011;41060;47.510;8.680;2024-02-21T02:56:29;2.40;;;1.20;;
55170;SDS011;41060;47.510;8.680;2024-02-21T02:58:57;4.05;;;1.65;;
55170;SDS011;41060;47.510;8.680;2024-02-21T03:01:25;2.78;;;1.30;;
55170;SDS011;41060;47.510;8.680;2024-02-21T03:03:52;5.60;;;1.25;;
55170;SDS011;41060;47.510;8.680;2024-02-21T03:06:19;1.83;;;1.15;;
55170;SDS011;41060;47.510;8.680;2024-02-21T03:08:46;3.53;;;1.30;;
55170;SDS011;41060;47.510;8.680;2024-02-21T03:11:13;2.58;;;1.48;;
55170;SDS011;41060;47.510;8.680;2024-02-21T03:13:40;2.10;;;1.10;;
55170;SDS011;41060;47.510;8.680;2024-02-21T03:16:08;4.05;;;1.10;;
55170;SDS011;41060;47.510;8.680;2024-02-21T03:18:35;1.67;;;0.80;;
55170;SDS011;41060;47.510;8.680;2024-02-21T03:21:02;2.05;;;1.10;;
55170;SDS011;41060;47.510;8.680;2024-02-21T03:23:31;2.00;;;1.20;;
55170;SDS011;41060;47.510;8.680;2024-02-21T03:26:01;2.03;;;1.20;;
55170;SDS011;41060;47.510;8.680;2024-02-21T03:28:27;4.35;;;1.20;;
55170;SDS011;41060;47.510;8.680;2024-02-21T03:30:54;3.63;;;1.67;;
55170;SDS011;41060;47.510;8.680;2024-02-21T03:33:22;2.40;;;1.42;;
55170;SDS011;41060;47.510;8.680;2024-02-21T03:35:49;2.65;;;1.70;;
55170;SDS011;41060;47.510;8.680;2024-02-21T03:38:16;2.65;;;1.50;;
55170;SDS011;41060;47.510;8.680;2024-02-21T03:40:43;4.18;;;1.35;;
55170;SDS011;41060;47.510;8.680;2024-02-21T03:43:09;2.10;;;1.25;;
55170;SDS011;41060;47.510;8.680;2024-02-21T03:45:37;2.05;;;0.90;;
55170;SDS011;41060;47.510;8.680;2024-02-21T03:48:04;2.72;;;1.52;;
55170;SDS011;41060;47.510;8.680;2024-02-21T03:50:32;2.63;;;0.90;;
55170;SDS011;41060;47.510;8.680;2024-02-21T03:53:00;1.30;;;1.00;;
55170;SDS011;41060;47.510;8.680;2024-02-21T03:55:26;1.50;;;1.27;;
55170;SDS011;41060;47.510;8.680;2024-02-21T03:57:53;1.25;;;0.95;;
55170;SDS011;41060;47.510;8.680;2024-02-21T04:00:20;2.30;;;1.27;;
55170;SDS011;41060;47.510;8.680;2024-02-21T04:02:47;1.92;;;1.20;;
55170;SDS011;41060;47.510;8.680;2024-02-21T04:05:15;3.00;;;1.35;;
55170;SDS011;41060;47.510;8.680;2024-02-21T04:07:44;1.73;;;1.05;;
55170;SDS011;41060;47.510;8.680;2024-02-21T04:10:10;2.05;;;1.00;;
55170;SDS011;41060;47.510;8.680;2024-02-21T04:12:40;1.85;;;0.77;;
55170;SDS011;41060;47.510;8.680;2024-02-21T04:15:08;2.03;;;1.10;;
55170;SDS011;41060;47.510;8.680;2024-02-21T04:17:35;2.13;;;1.33;;
55170;SDS011;41060;47.510;8.680;2024-02-21T04:20:02;1.60;;;0.85;;
55170;SDS011;41060;47.510;8.680;2024-02-21T04:22:33;2.05;;;0.77;;
55170;SDS011;41060;47.510;8.680;2024-02-21T04:25:01;1.70;;;1.02;;
55170;SDS011;41060;47.510;8.680;2024-02-21T04:27:28;1.20;;;0.93;;
55170;SDS011;41060;47.510;8.680;2024-02-21T04:29:55;2.53;;;0.90;;
55170;SDS011;41060;47.510;8.680;2024-02-21T04:32:22;3.05;;;1.05;;
55170;SDS011;41060;47.510;8.680;2024-02-21T04:34:49;2.17;;;1.58;;
55170;SDS011;41060;47.510;8.680;2024-02-21T04:37:16;1.95;;;1.33;;
55170;SDS011;41060;47.510;8.680;2024-02-21T04:39:43;7.35;;;1.48;;
55170;SDS011;41060;47.510;8.680;2024-02-21T04:42:11;2.53;;;1.65;;
55170;SDS011;41060;47.510;8.680;2024-02-21T04:44:39;5.35;;;2.53;;
55170;SDS011;41060;47.510;8.680;2024-02-21T04:47:06;4.88;;;1.95;;
55170;SDS011;41060;47.510;8.680;2024-02-21T04:49:33;5.90;;;2.20;;
55170;SDS011;41060;47.510;8.680;2024-02-21T04:52:00;3.08;;;1.48;;
55170;SDS011;41060;47.510;8.680;2024-02-21T04:54:27;8.23;;;2.05;;
55170;SDS011;41060;47.510;8.680;2024-02-21T04:56:56;3.38;;;1.80;;
55170;SDS011;41060;47.510;8.680;2024-02-21T04:59:25;3.53;;;1.70;;
55170;SDS011;41060;47.510;8.680;2024-02-21T05:01:53;3.65;;;1.23;;
55170;SDS011;41060;47.510;8.680;2024-02-21T05:04:20;5.38;;;1.30;;
55170;SDS011;41060;47.510;8.680;2024-02-21T05:06:47;1.50;;;1.20;;
55170;SDS011;41060;47.510;8.680;2024-02-21T05:09:16;2.80;;;1.30;;
55170;SDS011;41060;47.510;8.680;2024-02-21T05:11:43;3.33;;;1.55;;
55170;SDS011;41060;47.510;8.680;2024-02-21T05:14:10;1.10;;;0.93;;
55170;SDS011;41060;47.510;8.680;2024-02-21T05:16:39;2.05;;;1.67;;
55170;SDS011;41060;47.510;8.680;2024-02-21T05:19:06;2.45;;;1.65;;
55170;SDS011;41060;47.510;8.680;2024-02-21T05:21:33;3.25;;;1.85;;
55170;SDS011;41060;47.510;8.680;2024-02-21T05:24:00;3.33;;;1.63;;
55170;SDS011;41060;47.510;8.680;2024-02-21T05:26:29;2.75;;;1.33;;
55170;SDS011;41060;47.510;8.680;2024-02-21T05:28:57;6.45;;;1.85;;
55170;SDS011;41060;47.510;8.680;2024-02-21T05:31:24;4.20;;;1.10;;
55170;SDS011;41060;47.510;8.680;2024-02-21T05:33:54;5.82;;;2.22;;
55170;SDS011;41060;47.510;8.680;2024-02-21T05:36:21;3.05;;;1.65;;
55170;SDS011;41060;47.510;8.680;2024-02-21T05:38:48;2.22;;;1.63;;
55170;SDS011;41060;47.510;8.680;2024-02-21T05:41:14;3.13;;;1.23;;
55170;SDS011;41060;47.510;8.680;2024-02-21T05:43:42;1.50;;;1.17;;
55170;SDS011;41060;47.510;8.680;2024-02-21T05:46:08;3.25;;;1.65;;
55170;SDS011;41060;47.510;8.680;2024-02-21T05:48:35;2.00;;;1.42;;
55170;SDS011;41060;47.510;8.680;2024-02-21T05:51:04;3.63;;;1.70;;
55170;SDS011;41060;47.510;8.680;2024-02-21T05:53:30;3.50;;;1.63;;
55170;SDS011;41060;47.510;8.680;2024-02-21T05:55:57;1.48;;;1.15;;
55170;SDS011;41060;47.510;8.680;2024-02-21T05:58:26;2.65;;;1.33;;
55170;SDS011;41060;47.510;8.680;2024-02-21T06:00:53;2.92;;;1.80;;
55170;SDS011;41060;47.510;8.680;2024-02-21T06:03:23;3.30;;;1.70;;
55170;SDS011;41060;47.510;8.680;2024-02-21T06:05:50;5.25;;;1.83;;
55170;SDS011;41060;47.510;8.680;2024-02-21T06:08:18;5.22;;;1.88;;
55170;SDS011;41060;47.510;8.680;2024-02-21T06:10:46;10.43;;;2.75;;
55170;SDS011;41060;47.510;8.680;2024-02-21T06:13:13;6.07;;;2.08;;
55170;SDS011;41060;47.510;8.680;2024-02-21T06:15:40;6.13;;;1.40;;
55170;SDS011;41060;47.510;8.680;2024-02-21T06:18:07;8.80;;;2.35;;
55170;SDS011;41060;47.510;8.680;2024-02-21T06:20:34;11.05;;;4.25;;
55170;SDS011;41060;47.510;8.680;2024-02-21T06:23:01;5.80;;;2.40;;
55170;SDS011;41060;47.510;8.680;2024-02-21T06:25:30;5.43;;;1.95;;
55170;SDS011;41060;47.510;8.680;2024-02-21T06:27:57;5.68;;;1.42;;
55170;SDS011;41060;47.510;8.680;2024-02-21T06:30:23;2.72;;;1.52;;
55170;SDS011;41060;47.510;8.680;2024-02-21T06:32:50;2.17;;;1.65;;
55170;SDS011;41060;47.510;8.680;2024-02-21T06:35:17;3.78;;;1.48;;
55170;SDS011;41060;47.510;8.680;2024-02-21T06:37:44;2.45;;;1.38;;
55170;SDS011;41060;47.510;8.680;2024-02-21T06:40:16;2.35;;;1.55;;
55170;SDS011;41060;47.510;8.680;2024-02-21T06:42:44;9.23;;;1.80;;
55170;SDS011;41060;47.510;8.680;2024-02-21T06:45:11;4.40;;;1.77;;
55170;SDS011;41060;47.510;8.680;2024-02-21T06:47:38;3.08;;;1.10;;
55170;SDS011;41060;47.510;8.680;2024-02-21T06:50:05;1.65;;;1.27;;
55170;SDS011;41060;47.510;8.680;2024-02-21T06:52:35;4.60;;;2.08;;
55170;SDS011;41060;47.510;8.680;2024-02-21T06:55:03;2.85;;;1.77;;
55170;SDS011;41060;47.510;8.680;2024-02-21T06:57:30;4.00;;;2.45;;
55170;SDS011;41060;47.510;8.680;2024-02-21T06:59:58;5.53;;;2.13;;
55170;SDS011;41060;47.510;8.680;2024-02-21T07:02:25;2.47;;;1.58;;
55170;SDS011;41060;47.510;8.680;2024-02-21T07:04:51;2.88;;;1.77;;
55170;SDS011;41060;47.510;8.680;2024-02-21T07:07:18;2.95;;;1.52;;
55170;SDS011;41060;47.510;8.680;2024-02-21T07:09:45;2.88;;;1.60;;
55170;SDS011;41060;47.510;8.680;2024-02-21T07:12:16;2.63;;;1.55;;
55170;SDS011;41060;47.510;8.680;2024-02-21T07:14:44;5.93;;;2.20;;
55170;SDS011;41060;47.510;8.680;2024-02-21T07:17:12;2.90;;;1.48;;
55170;SDS011;41060;47.510;8.680;2024-02-21T07:19:39;7.43;;;1.40;;
55170;SDS011;41060;47.510;8.680;2024-02-21T07:22:08;7.50;;;1.83;;
55170;SDS011;41060;47.510;8.680;2024-02-21T07:24:35;1.75;;;1.20;;
55170;SDS011;41060;47.510;8.680;2024-02-21T07:27:02;4.38;;;2.03;;
55170;SDS011;41060;47.510;8.680;2024-02-21T07:29:30;1.60;;;1.02;;
55170;SDS011;41060;47.510;8.680;2024-02-21T07:31:57;3.90;;;1.50;;
55170;SDS011;41060;47.510;8.680;2024-02-21T07:34:31;4.65;;;1.77;;
55170;SDS011;41060;47.510;8.680;2024-02-21T07:36:58;2.92;;;1.42;;
55170;SDS011;41060;47.510;8.680;2024-02-21T07:39:25;3.50;;;1.35;;
55170;SDS011;41060;47.510;8.680;2024-02-21T07:41:51;6.60;;;2.05;;
55170;SDS011;41060;47.510;8.680;2024-02-21T07:44:19;3.63;;;1.85;;
55170;SDS011;41060;47.510;8.680;2024-02-21T07:46:45;5.60;;;1.80;;
55170;SDS011;41060;47.510;8.680;2024-02-21T07:49:12;5.50;;;2.45;;
55170;SDS011;41060;47.510;8.680;2024-02-21T07:51:40;10.30;;;2.22;;
55170;SDS011;41060;47.510;8.680;2024-02-21T07:54:07;2.53;;;1.83;;
55170;SDS011;41060;47.510;8.680;2024-02-21T07:56:34;5.30;;;1.92;;
55170;SDS011;41060;47.510;8.680;2024-02-21T07:59:04;3.22;;;1.42;;
55170;SDS011;41060;47.510;8.680;2024-02-21T08:01:30;2.97;;;1.60;;
55170;SDS011;41060;47.510;8.680;2024-02-21T08:03:57;4.45;;;1.60;;
55170;SDS011;41060;47.510;8.680;2024-02-21T08:06:24;2.03;;;1.08;;
55170;SDS011;41060;47.510;8.680;2024-02-21T08:08:52;5.68;;;1.58;;
55170;SDS011;41060;47.510;8.680;2024-02-21T08:11:19;3.10;;;1.30;;
55170;SDS011;41060;47.510;8.680;2024-02-21T08:13:46;3.55;;;1.20;;
55170;SDS011;41060;47.510;8.680;2024-02-21T08:16:13;4.82;;;1.33;;
55170;SDS011;41060;47.510;8.680;2024-02-21T08:18:39;3.08;;;1.38;;
55170;SDS011;41060;47.510;8.680;2024-02-21T08:21:09;2.95;;;1.55;;
55170;SDS011;41060;47.510;8.680;2024-02-21T08:23:36;3.30;;;2.13;;
55170;SDS011;41060;47.510;8.680;2024-02-21T08:26:04;3.47;;;1.67;;
55170;SDS011;41060;47.510;8.680;2024-02-21T08:28:31;5.53;;;1.83;;
55170;SDS011;41060;47.510;8.680;2024-02-21T08:30:58;4.03;;;1.67;;
55170;SDS011;41060;47.510;8.680;2024-02-21T08:33:25;2.55;;;1.27;;
55170;SDS011;41060;47.510;8.680;2024-02-21T08:35:53;6.88;;;1.52;;
55170;SDS011;41060;47.510;8.680;2024-02-21T08:38:19;2.30;;;1.50;;
55170;SDS011;41060;47.510;8.680;2024-02-21T08:40:46;2.97;;;1.42;;
55170;SDS011;41060;47.510;8.680;2024-02-21T08:43:15;2.25;;;1.13;;
55170;SDS011;41060;47.510;8.680;2024-02-21T08:45:41;2.70;;;1.73;;
55170;SDS011;41060;47.510;8.680;2024-02-21T08:48:08;2.50;;;1.40;;
55170;SDS011;41060;47.510;8.680;2024-02-21T08:50:35;3.85;;;1.40;;
55170;SDS011;41060;47.510;8.680;2024-02-21T08:53:03;2.30;;;1.42;;
55170;SDS011;41060;47.510;8.680;2024-02-21T08:55:31;4.30;;;1.80;;
55170;SDS011;41060;47.510;8.680;2024-02-21T08:57:59;4.72;;;1.52;;
55170;SDS011;41060;47.510;8.680;2024-02-21T09:00:30;4.40;;;1.20;;
55170;SDS011;41060;47.510;8.680;2024-02-21T09:02:58;2.55;;;1.38;;
55170;SDS011;41060;47.510;8.680;2024-02-21T09:05:25;1.73;;;0.90;;
55170;SDS011;41060;47.510;8.680;2024-02-21T09:07:52;1.98;;;0.90;;
55170;SDS011;41060;47.510;8.680;2024-02-21T09:10:18;4.55;;;1.08;;
55170;SDS011;41060;47.510;8.680;2024-02-21T09:12:48;2.25;;;1.10;;
55170;SDS011;41060;47.510;8.680;2024-02-21T09:15:14;3.08;;;0.95;;
55170;SDS011;41060;47.510;8.680;2024-02-21T09:17:42;2.22;;;1.02;;
55170;SDS011;41060;47.510;8.680;2024-02-21T09:20:10;2.38;;;0.93;;
55170;SDS011;41060;47.510;8.680;2024-02-21T09:22:37;2.90;;;0.65;;
55170;SDS011;41060;47.510;8.680;2024-02-21T09:25:05;1.02;;;0.52;;
55170;SDS011;41060;47.510;8.680;2024-02-21T09:27:33;2.03;;;1.20;;
55170;SDS011;41060;47.510;8.680;2024-02-21T09:30:02;2.28;;;1.25;;
55170;SDS011;41060;47.510;8.680;2024-02-21T09:32:29;4.22;;;1.40;;
55170;SDS011;41060;47.510;8.680;2024-02-21T09:34:59;8.80;;;2.00;;
55170;SDS011;41060;47.510;8.680;2024-02-21T09:37:26;4.90;;;1.95;;
55170;SDS011;41060;47.510;8.680;2024-02-21T09:39:52;5.65;;;2.03;;
55170;SDS011;41060;47.510;8.680;2024-02-21T09:42:23;2.78;;;1.40;;
55170;SDS011;41060;47.510;8.680;2024-02-21T09:44:57;1.67;;;1.02;;
55170;SDS011;41060;47.510;8.680;2024-02-21T09:47:24;1.55;;;1.05;;
55170;SDS011;41060;47.510;8.680;2024-02-21T09:50:01;2.15;;;0.60;;
55170;SDS011;41060;47.510;8.680;2024-02-21T09:52:31;0.93;;;0.50;;
55170;SDS011;41060;47.510;8.680;2024-02-21T09:55:00;0.60;;;0.50;;
55170;SDS011;41060;47.510;8.680;2024-02-21T09:57:30;1.90;;;0.73;;
55170;SDS011;41060;47.510;8.680;2024-02-21T09:59:57;0.70;;;0.50;;
55170;SDS011;41060;47.510;8.680;2024-02-21T10:02:25;3.03;;;0.75;;
55170;SDS011;41060;47.510;8.680;2024-02-21T10:04:52;0.90;;;0.60;;
55170;SDS011;41060;47.510;8.680;2024-02-21T10:07:20;1.35;;;0.68;;
55170;SDS011;41060;47.510;8.680;2024-02-21T10:09:59;0.65;;;0.55;;
55170;SDS011;41060;47.510;8.680;2024-02-21T10:12:27;2.72;;;1.25;;
55170;SDS011;41060;47.510;8.680;2024-02-21T10:15:02;1.77;;;1.08;;
55170;SDS011;41060;47.510;8.680;2024-02-21T10:17:29;1.65;;;0.95;;
55170;SDS011;41060;47.510;8.680;2024-02-21T10:20:06;2.83;;;0.90;;
55170;SDS011;41060;47.510;8.680;2024-02-21T10:22:35;4.20;;;0.82;;
55170;SDS011;41060;47.510;8.680;2024-02-21T10:25:07;1.27;;;0.80;;
55170;SDS011;41060;47.510;8.680;2024-02-21T10:27:37;2.88;;;0.63;;
55170;SDS011;41060;47.510;8.680;2024-02-21T10:30:05;2.58;;;1.10;;
55170;SDS011;41060;47.510;8.680;2024-02-21T10:32:33;1.58;;;0.88;;
55170;SDS011;41060;47.510;8.680;2024-02-21T10:35:01;1.52;;;1.00;;
55170;SDS011;41060;47.510;8.680;2024-02-21T10:37:30;1.20;;;0.75;;
55170;SDS011;41060;47.510;8.680;2024-02-21T10:40:01;1.95;;;1.00;;
55170;SDS011;41060;47.510;8.680;2024-02-21T10:42:29;4.18;;;0.73;;
55170;SDS011;41060;47.510;8.680;2024-02-21T10:45:01;1.60;;;0.88;;
55170;SDS011;41060;47.510;8.680;2024-02-21T10:47:30;1.42;;;1.02;;
55170;SDS011;41060;47.510;8.680;2024-02-21T10:50:02;2.10;;;1.40;;
55170;SDS011;41060;47.510;8.680;2024-02-21T10:52:32;1.30;;;0.80;;
55170;SDS011;41060;47.510;8.680;2024-02-21T10:55:13;1.83;;;0.95;;
55170;SDS011;41060;47.510;8.680;2024-02-21T10:57:45;2.75;;;1.10;;
55170;SDS011;41060;47.510;8.680;2024-02-21T11:00:16;3.03;;;0.93;;
55170;SDS011;41060;47.510;8.680;2024-02-21T11:02:44;3.08;;;0.80;;
55170;SDS011;41060;47.510;8.680;2024-02-21T11:05:12;2.15;;;1.02;;
55170;SDS011;41060;47.510;8.680;2024-02-21T11:07:39;2.40;;;0.90;;
55170;SDS011;41060;47.510;8.680;2024-02-21T11:10:22;2.13;;;1.23;;
55170;SDS011;41060;47.510;8.680;2024-02-21T11:12:52;3.63;;;1.17;;
55170;SDS011;41060;47.510;8.680;2024-02-21T11:15:24;2.38;;;1.17;;
55170;SDS011;41060;47.510;8.680;2024-02-21T11:17:55;1.40;;;0.80;;
55170;SDS011;41060;47.510;8.680;2024-02-21T11:20:31;1.08;;;0.80;;
55170;SDS011;41060;47.510;8.680;2024-02-21T11:22:59;1.88;;;1.02;;
55170;SDS011;41060;47.510;8.680;2024-02-21T11:25:28;2.35;;;0.82;;
55170;SDS011;41060;47.510;8.680;2024-02-21T11:27:59;2.67;;;1.40;;
55170;SDS011;41060;47.510;8.680;2024-02-21T11:30:29;2.75;;;1.30;;
55170;SDS011;41060;47.510;8.680;2024-02-21T11:33:01;1.85;;;1.15;;
55170;SDS011;41060;47.510;8.680;2024-02-21T11:35:32;1.80;;;1.00;;
55170;SDS011;41060;47.510;8.680;2024-02-21T11:38:09;2.80;;;1.20;;
55170;SDS011;41060;47.510;8.680;2024-02-21T11:40:41;1.73;;;1.00;;
55170;SDS011;41060;47.510;8.680;2024-02-21T11:43:09;3.03;;;1.40;;
55170;SDS011;41060;47.510;8.680;2024-02-21T11:45:36;4.47;;;1.20;;
55170;SDS011;41060;47.510;8.680;2024-02-21T11:48:05;1.80;;;0.90;;
55170;SDS011;41060;47.510;8.680;2024-02-21T11:50:33;2.85;;;1.27;;
55170;SDS011;41060;47.510;8.680;2024-02-21T11:53:00;2.97;;;1.17;;
55170;SDS011;41060;47.510;8.680;2024-02-21T11:55:28;1.67;;;1.05;;
55170;SDS011;41060;47.510;8.680;2024-02-21T11:57:56;1.67;;;1.20;;
55170;SDS011;41060;47.510;8.680;2024-02-21T12:00:25;1.52;;;1.05;;
55170;SDS011;41060;47.510;8.680;2024-02-21T12:02:52;3.20;;;1.60;;
55170;SDS011;41060;47.510;8.680;2024-02-21T12:05:25;5.05;;;1.50;;
55170;SDS011;41060;47.510;8.680;2024-02-21T12:07:54;3.72;;;1.40;;
55170;SDS011;41060;47.510;8.680;2024-02-21T12:10:21;2.25;;;1.08;;
55170;SDS011;41060;47.510;8.680;2024-02-21T12:12:48;4.00;;;1.38;;
55170;SDS011;41060;47.510;8.680;2024-02-21T12:15:19;3.45;;;1.33;;
55170;SDS011;41060;47.510;8.680;2024-02-21T12:17:45;2.22;;;1.42;;
55170;SDS011;41060;47.510;8.680;2024-02-21T12:20:12;2.40;;;1.13;;
55170;SDS011;41060;47.510;8.680;2024-02-21T12:22:41;3.08;;;1.20;;
55170;SDS011;41060;47.510;8.680;2024-02-21T12:25:17;3.42;;;1.63;;
55170;SDS011;41060;47.510;8.680;2024-02-21T12:27:49;3.90;;;1.50;;
55170;SDS011;41060;47.510;8.680;2024-02-21T12:30:15;7.20;;;1.35;;
55170;SDS011;41060;47.510;8.680;2024-02-21T12:32:43;2.75;;;1.05;;
55170;SDS011;41060;47.510;8.680;2024-02-21T12:35:11;4.55;;;1.40;;
55170;SDS011;41060;47.510;8.680;2024-02-21T12:37:37;2.35;;;1.25;;
55170;SDS011;41060;47.510;8.680;2024-02-21T12:40:04;1.77;;;1.02;;
55170;SDS011;41060;47.510;8.680;2024-02-21T12:42:32;3.47;;;1.33;;
55170;SDS011;41060;47.510;8.680;2024-02-21T12:44:59;2.67;;;1.20;;
55170;SDS011;41060;47.510;8.680;2024-02-21T12:47:26;3.30;;;1.05;;
55170;SDS011;41060;47.510;8.680;2024-02-21T12:49:55;1.63;;;1.00;;
55170;SDS011;41060;47.510;8.680;2024-02-21T12:52:22;1.77;;;1.17;;
55170;SDS011;41060;47.510;8.680;2024-02-21T12:54:49;1.83;;;1.17;;
55170;SDS011;41060;47.510;8.680;2024-02-21T12:57:17;2.20;;;1.00;;
55170;SDS011;41060;47.510;8.680;2024-02-21T12:59:44;3.60;;;0.85;;
55170;SDS011;41060;47.510;8.680;2024-02-21T13:02:10;3.17;;;1.30;;
55170;SDS011;41060;47.510;8.680;2024-02-21T13:04:37;1.17;;;0.82;;
55170;SDS011;41060;47.510;8.680;2024-02-21T13:07:07;1.70;;;0.90;;
55170;SDS011;41060;47.510;8.680;2024-02-21T13:09:34;2.22;;;1.10;;
55170;SDS011;41060;47.510;8.680;2024-02-21T13:12:01;1.60;;;1.10;;
55170;SDS011;41060;47.510;8.680;2024-02-21T13:14:28;2.22;;;1.10;;
55170;SDS011;41060;47.510;8.680;2024-02-21T13:16:55;3.88;;;1.33;;
55170;SDS011;41060;47.510;8.680;2024-02-21T13:19:22;5.93;;;1.30;;
55170;SDS011;41060;47.510;8.680;2024-02-21T13:21:49;1.52;;;0.93;;
55170;SDS011;41060;47.510;8.680;2024-02-21T13:24:17;2.58;;;1.10;;
55170;SDS011;41060;47.510;8.680;2024-02-21T13:26:44;2.47;;;1.17;;
55170;SDS011;41060;47.510;8.680;2024-02-21T13:29:10;1.38;;;0.88;;
55170;SDS011;41060;47.510;8.680;2024-02-21T13:31:37;1.40;;;0.80;;
55170;SDS011;41060;47.510;8.680;2024-02-21T13:34:05;2.45;;;1.05;;
55170;SDS011;41060;47.510;8.680;2024-02-21T13:36:31;1.65;;;0.80;;
55170;SDS011;41060;47.510;8.680;2024-02-21T13:38:58;4.18;;;0.77;;
55170;SDS011;41060;47.510;8.680;2024-02-21T13:41:31;1.83;;;0.70;;
55170;SDS011;41060;47.510;8.680;2024-02-21T13:43:58;0.75;;;0.57;;
55170;SDS011;41060;47.510;8.680;2024-02-21T13:46:26;3.17;;;0.80;;
55170;SDS011;41060;47.510;8.680;2024-02-21T13:48:52;4.53;;;1.13;;
55170;SDS011;41060;47.510;8.680;2024-02-21T13:51:30;1.25;;;0.93;;
55170;SDS011;41060;47.510;8.680;2024-02-21T13:53:56;1.58;;;0.93;;
55170;SDS011;41060;47.510;8.680;2024-02-21T13:56:24;3.20;;;0.93;;
55170;SDS011;41060;47.510;8.680;2024-02-21T13:58:55;1.90;;;0.90;;
55170;SDS011;41060;47.510;8.680;2024-02-21T14:01:25;5.00;;;0.97;;
55170;SDS011;41060;47.510;8.680;2024-02-21T14:03:52;2.75;;;0.77;;
55170;SDS011;41060;47.510;8.680;2024-02-21T14:06:19;1.92;;;0.88;;
55170;SDS011;41060;47.510;8.680;2024-02-21T14:08:45;1.10;;;0.70;;
55170;SDS011;41060;47.510;8.680;2024-02-21T14:11:12;3.30;;;0.80;;
55170;SDS011;41060;47.510;8.680;2024-02-21T14:13:39;1.75;;;0.98;;
55170;SDS011;41060;47.510;8.680;2024-02-21T14:16:10;2.00;;;1.00;;
55170;SDS011;41060;47.510;8.680;2024-02-21T14:18:39;3.35;;;0.90;;
55170;SDS011;41060;47.510;8.680;2024-02-21T14:21:10;1.88;;;0.70;;
55170;SDS011;41060;47.510;8.680;2024-02-21T14:23:36;2.25;;;0.80;;
55170;SDS011;41060;47.510;8.680;2024-02-21T14:26:04;2.65;;;0.88;;
55170;SDS011;41060;47.510;8.680;2024-02-21T14:28:31;1.58;;;0.82;;
55170;SDS011;41060;47.510;8.680;2024-02-21T14:30:58;1.13;;;0.82;;
55170;SDS011;41060;47.510;8.680;2024-02-21T14:33:27;2.53;;;0.90;;
55170;SDS011;41060;47.510;8.680;2024-02-21T14:35:55;1.38;;;0.82;;
55170;SDS011;41060;47.510;8.680;2024-02-21T14:38:22;1.75;;;0.77;;
55170;SDS011;41060;47.510;8.680;2024-02-21T14:40:49;1.05;;;0.70;;
55170;SDS011;41060;47.510;8.680;2024-02-21T14:43:16;1.63;;;0.73;;
55170;SDS011;41060;47.510;8.680;2024-02-21T14:45:43;1.65;;;0.70;;
55170;SDS011;41060;47.510;8.680;2024-02-21T14:48:13;2.00;;;0.93;;
55170;SDS011;41060;47.510;8.680;2024-02-21T14:50:41;2.60;;;0.90;;
55170;SDS011;41060;47.510;8.680;2024-02-21T14:53:08;0.95;;;0.68;;